Hiwassee Observed Data For Previous 48 Hours

Caption
Day and Hour Reservoir Elevation (behind dam)* Tailwater Elevation (below dam)* Average Hourly Discharge*
9/20/2018 2 AM EDT 1,504.62 1,277.86 0
9/20/2018 3 AM EDT 1,504.69 1,277.48 0
9/20/2018 4 AM EDT 1,504.66 1,277.39 0
9/20/2018 5 AM EDT 1,504.71 1,277.25 0
9/20/2018 6 AM EDT 1,504.74 1,276.96 0
9/20/2018 7 AM EDT 1,504.71 1,276.76 0
9/20/2018 8 AM EDT 1,504.76 1,276.57 0
9/20/2018 9 AM EDT 1,504.76 1,276.42 0
9/20/2018 10 AM EDT 1,504.79 1,276.17 0
9/20/2018 11 AM EDT 1,504.79 1,275.96 0
9/20/2018 12 PM EDT 1,504.81 1,275.77 0
9/20/2018 1 PM EDT 1,504.81 1,275.61 0
9/20/2018 2 PM EDT 1,504.74 1,276.14 2,579
9/20/2018 3 PM EDT 1,504.69 1,277.13 9,487
9/20/2018 4 PM EDT 1,504.50 1,277.42 9,521
9/20/2018 5 PM EDT 1,504.35 1,277.64 9,521
9/20/2018 6 PM EDT 1,504.20 1,277.96 9,505
9/20/2018 7 PM EDT 1,504.03 1,278.41 9,504
9/20/2018 8 PM EDT 1,503.94 1,278.83 8,213
9/20/2018 9 PM EDT 1,503.88 1,278.18 4,479
9/20/2018 10 PM EDT 1,503.91 1,278.50 2,497
9/20/2018 11 PM EDT 1,503.94 1,278.50 0
9/21/2018 12 AM EDT 1,503.98 1,277.89 0
9/21/2018 1 AM EDT 1,504.01 1,277.72 38
9/21/2018 2 AM EDT 1,503.98 1,278.36 4,324
9/21/2018 3 AM EDT 1,503.94 1,278.23 4,382
9/21/2018 4 AM EDT 1,503.96 1,277.10 163
9/21/2018 5 AM EDT 1,504.01 1,277.69 0
9/21/2018 6 AM EDT 1,504.03 1,277.63 0
9/21/2018 7 AM EDT 1,504.05 1,277.35 0
9/21/2018 8 AM EDT 1,504.06 1,276.77 0
9/21/2018 9 AM EDT 1,504.06 1,276.84 0
9/21/2018 10 AM EDT 1,504.08 1,276.82 0
9/21/2018 11 AM EDT 1,504.08 1,276.48 0
9/21/2018 12 PM EDT 1,504.11 1,276.04 0
9/21/2018 1 PM EDT 1,504.08 1,276.71 550
9/21/2018 2 PM EDT 1,504.01 1,277.01 4,512
9/21/2018 3 PM EDT 1,503.89 1,277.65 9,469
9/21/2018 4 PM EDT 1,503.74 1,277.69 9,495
9/21/2018 5 PM EDT 1,503.62 1,278.07 9,475
9/21/2018 6 PM EDT 1,503.42 1,278.53 9,477
9/21/2018 7 PM EDT 1,503.30 1,278.85 9,446
9/21/2018 8 PM EDT 1,503.25 1,278.32 4,739
9/21/2018 9 PM EDT 1,503.23 1,278.90 4,377
9/21/2018 10 PM EDT 1,503.23 1,278.21 166
9/21/2018 11 PM EDT 1,503.35 1,278.47 0
9/22/2018 12 AM EDT 1,503.35 1,278.17 0
9/22/2018 1 AM EDT 1,503.44 1,277.98 0
9/22/2018 2 AM EDT 1,503.47 1,277.83 0
9/22/2018 3 AM EDT 1,503.47 1,277.51 0
9/22/2018 4 AM EDT 1,503.54 1,277.50 0
9/22/2018 5 AM EDT 1,503.52 1,277.12 0

Elevations are in feet above sea level. Discharges are in cubic feet per second and are reported at the end of the hour.